Terminal Aerodrome Forecast
Issued by NWS North Platte, NE

Home | Current Version | Previous Version | Graphics & Text | Print | Product List | Glossary On
Versions: 1 2 3 4 5 6 7 8 9 10 11 12 13 14 15 16 17 18
000
FTUS43 KLBF 290200 AAA
TAFVTN
TAF AMD
KVTN 290231Z 2903/2924 34021G29KT P6SM SCT017 OVC025
     FM290600 33016G25KT P6SM OVC017
     FM291500 33012G16KT P6SM SCT025
     FM291800 32010KT P6SM SCT250=

USA.gov is the U.S. government's official web portal to all federal, state and local government web resources and services.